createdAt,value
2022-08-10T00:03:37.092Z,21.9
2022-08-10T00:18:03.497Z,21.7
2022-08-10T00:32:30.641Z,21.4
2022-08-10T00:46:58.407Z,21.4
2022-08-10T01:02:10.401Z,20.7
2022-08-10T01:16:22.142Z,20.9
2022-08-10T01:30:45.263Z,20.8
2022-08-10T01:45:11.910Z,20.2
2022-08-10T01:59:40.545Z,20.4
2022-08-10T02:14:16.880Z,20.2
2022-08-10T02:28:44.411Z,20.1
2022-08-10T02:45:17.273Z,19.9
2022-08-10T02:59:20.926Z,19.8
2022-08-10T03:13:48.879Z,19.5
2022-08-10T03:28:18.214Z,19.4
2022-08-10T03:42:45.829Z,19.3
2022-08-10T03:57:13.245Z,19.2
2022-08-10T04:11:40.552Z,19.1
2022-08-10T04:26:09.052Z,18.8
2022-08-10T04:40:42.899Z,18.7
2022-08-10T04:55:10.620Z,19.1
2022-08-10T05:10:00.783Z,19.3
2022-08-10T05:24:21.771Z,19.5
2022-08-10T05:38:50.586Z,19.8
2022-08-10T05:54:00.079Z,19.9
2022-08-10T06:08:13.996Z,20.5
2022-08-10T06:22:41.859Z,20.8
2022-08-10T06:37:09.068Z,21.3
2022-08-10T06:51:37.145Z,21.5
2022-08-10T07:06:12.583Z,22
2022-08-10T07:20:44.124Z,22.6
2022-08-10T07:35:10.016Z,23.6
2022-08-10T07:49:56.149Z,28.6
2022-08-10T08:04:31.177Z,29.6
2022-08-10T08:19:26.499Z,32.7
2022-08-10T08:33:59.820Z,32
2022-08-10T08:48:29.887Z,33
2022-08-10T09:02:57.597Z,33.2
2022-08-10T09:17:25.422Z,33.3
2022-08-10T09:31:55.666Z,33.3
2022-08-10T09:50:12.619Z,32.6
2022-08-10T10:04:35.799Z,31.8
2022-08-10T10:19:05.239Z,31.5
2022-08-10T10:33:34.711Z,32
2022-08-10T10:47:59.611Z,32.3
2022-08-10T11:02:25.610Z,32.1
2022-08-10T11:16:57.353Z,32.1
2022-08-10T11:31:23.864Z,32.1
2022-08-10T11:45:55.501Z,32.9
2022-08-10T12:00:20.234Z,32.6
2022-08-10T12:14:52.817Z,32.9
2022-08-10T12:29:14.928Z,33.1
2022-08-10T12:44:05.824Z,33.2
2022-08-10T12:58:58.539Z,32.3
2022-08-10T13:13:10.793Z,33.4
2022-08-10T13:28:00.295Z,33.3
2022-08-10T13:42:43.580Z,32.8
2022-08-10T13:57:10.670Z,32.9
2022-08-10T14:11:38.882Z,33.2
2022-08-10T14:26:08.900Z,33.1
2022-08-10T14:40:34.194Z,33.1
2022-08-10T14:55:02.095Z,33.1
2022-08-10T15:09:54.737Z,32.5
2022-08-10T15:24:27.171Z,33
2022-08-10T15:38:45.389Z,32.5
2022-08-10T15:53:08.848Z,32.3
2022-08-10T16:07:45.640Z,32.1
2022-08-10T16:22:34.771Z,32
2022-08-10T16:36:47.592Z,32
2022-08-10T16:51:14.922Z,32
2022-08-10T17:06:02.046Z,31.8
2022-08-10T17:20:31.195Z,31.5
2022-08-10T17:34:53.053Z,31.5
2022-08-10T17:49:18.889Z,30.6
2022-08-10T18:03:45.545Z,30.3
2022-08-10T18:18:12.806Z,30
2022-08-10T18:32:39.361Z,29.5
2022-08-10T18:47:06.071Z,29.1
2022-08-10T19:01:32.217Z,28.9
2022-08-10T19:15:58.742Z,28.2
2022-08-10T19:30:26.423Z,27.7
2022-08-10T19:44:51.721Z,27.4
2022-08-10T20:00:02.220Z,27.1
2022-08-10T20:14:28.192Z,26.8
2022-08-10T20:28:54.619Z,25.9
2022-08-10T20:43:21.933Z,25.6
2022-08-10T20:57:53.801Z,25
2022-08-10T21:12:19.817Z,24.7
2022-08-10T21:26:46.679Z,24.3
2022-08-10T21:41:17.259Z,23.9
2022-08-10T21:55:56.071Z,23.8
2022-08-10T22:10:11.449Z,23.4
2022-08-10T22:24:41.299Z,23.1
2022-08-10T22:39:06.894Z,23
2022-08-10T22:53:33.839Z,22.7
2022-08-10T23:08:08.367Z,21.9
2022-08-10T23:22:37.345Z,21.7
2022-08-10T23:37:00.476Z,22.2
2022-08-10T23:51:26.407Z,21.8
